Ada, Ohio
Current Conditions -  °F | °C
As of 9:53 AM on Friday 28 Nov 2014 (Local Time) from KAOH Reporting Station
Overcast Overcast  
Wind Chill: 19°   Ceiling: 10000
Heat Index: 25°   Visibility: 10mi
Dew Point: 14°   Wind: 5mph
Humidity: 63%   Direction: 190°S
Pressure: 30.33"   Gusts: NA
Location:  40.78°N, 83.82°W
Report Text: KAOH 281453Z AUTO 19004KT 10SM OVC100 M04/M10 A3033 RMK AO2 SLP282 T10391100 58013
Loading
Personal Weather Stations






























Interactive Weather Map New forecast layout! Learn more

10-Day Weather Forecast

Advertisements
Track Severe Weather on mobile